• Join FlightAware (Why Join?)
  • Login
  • US Flag 
11:08PM EDT


 

Airport Tracker/Info


-or-


 

Live Flight TrackerFlight Track Log ✈ SAS4416 ✈ 26-Jun-2013 ✈ ENGM / OSL - ENTC / TOS

Flight Track Log - Related Links

Times and Time Zones

All times are in EDT time to prevent confusion due to time zone crossing. See the SAS4416 flight status page for this flight to view local times or setup timezone preferences in your user account.

Time Position Orientation Groundspeed Altitude Reporting Facility
EDT Latitude Longitude Course Direction KTS MPH feet Rate Location/Type
06:01AM 60.4383 11.2400 16° North  Level Estimated
06:02AM 60.5605 11.3106 16° North  Level Estimated
06:02AM 60.3780 11.1150 16° North 264 304 8,000  Level FlightAware
06:03AM 60.6826 11.3817 16° North  Level Estimated
06:03AM 60.4940 11.2160 23° Northeast 325 374 11,200  Level FlightAware
06:04AM 60.5830 11.2940 23° Northeast 347 399 13,400 2,220 Climbing FlightAware
06:05AM 60.6460 11.3490 23° Northeast 353 406 15,100 2,220 Climbing FlightAware
06:06AM 60.7130 11.4090 24° Northeast 366 421 16,600 2,040 Climbing FlightAware
06:06AM 60.7790 11.4450 15° North 381 438 18,000 1,860 Climbing FlightAware
06:08AM 60.9300 11.4630 North 417 480 20,500 1,500 Climbing FlightAware
06:08AM 61.0120 11.4730 North 423 487 21,200 2,160 Climbing FlightAware
06:09AM 61.1230 11.4880 North 441 507 24,100 2,760 Climbing FlightAware
06:10AM 61.2150 11.5000 North 453 521 25,700 1,980 Climbing FlightAware
06:11AM 61.3370 11.5170 North 468 539 27,500 1,680 Climbing FlightAware
06:12AM 61.4260 11.5290 North 481 554 28,500 1,560 Climbing FlightAware
06:12AM 61.5150 11.5440 North 493 567 29,600 1,800 Climbing FlightAware
06:13AM 61.6200 11.5580 North 496 571 31,100 2,100 Climbing FlightAware
06:14AM 61.7150 11.5690 North 489 563 32,700 2,100 Climbing FlightAware
06:14AM 61.7960 11.5790 North 486 559 33,900 1,800 Climbing FlightAware
06:15AM 61.8850 11.5910 North 487 560 35,000 480 Climbing FlightAware
06:16AM 62.0740 11.6180 North 486 559 35,000  Level FlightAware
06:17AM 62.1680 11.6310 North 486 559 35,000  Level FlightAware
06:18AM 62.2650 11.6450 North 485 558 35,000  Level FlightAware
06:19AM 62.3540 11.6580 North 485 558 35,000  Level FlightAware
06:19AM 62.4520 11.6720 North 484 557 35,000  Level FlightAware
06:20AM 62.5400 11.6840 North 483 556 35,000  Level FlightAware
06:21AM 62.6360 11.6980 North 482 555 35,000  Level FlightAware
06:21AM 62.7330 11.7120 North 482 555 35,000  Level FlightAware
06:22AM 62.8200 11.7250 North 482 555 35,000  Level FlightAware
06:23AM 62.9050 11.7380 North 482 555 35,000  Level FlightAware
06:24AM 63.0130 11.7540 North 483 556 35,000  Level FlightAware
06:24AM 63.1010 11.7670 North 483 556 35,000  Level FlightAware
06:25AM 63.1990 11.7820 North 483 556 35,000  Level FlightAware
06:26AM 63.2870 11.7960 North 483 556 35,000  Level FlightAware
06:26AM 63.3840 11.8340 10° North 483 556 35,000  Level FlightAware
06:27AM 63.4670 11.9000 20° North 484 557 35,000  Level FlightAware
06:28AM 63.5510 11.9680 20° North 484 557 35,000  Level FlightAware
06:28AM 63.6470 12.0460 20° North 485 558 35,000  Level FlightAware
06:29AM 63.7320 12.1160 20° North 485 558 35,000  Level FlightAware
06:30AM 63.8500 12.2140 20° North 486 559 35,000  Level FlightAware
06:31AM 63.9350 12.2850 20° North 487 560 35,000  Level FlightAware
06:31AM 64.0270 12.3630 20° North 487 560 35,000  Level FlightAware
06:32AM 64.1180 12.4400 20° North 486 559 35,000  Level FlightAware
06:33AM 64.1980 12.5090 21° North 486 559 35,000  Level FlightAware
06:34AM 64.2960 12.5930 20° North 487 560 35,000  Level FlightAware
06:34AM 64.3800 12.6650 20° North 487 560 35,000  Level FlightAware
06:35AM 64.4720 12.7450 21° North 486 559 35,000  Level FlightAware
06:36AM 64.5560 12.8190 21° North 486 559 35,000  Level FlightAware
06:36AM 64.6470 12.9000 21° North 485 558 35,000  Level FlightAware
06:37AM 64.7300 12.9730 21° North 486 559 35,000  Level FlightAware
06:38AM 64.8240 13.0570 21° North 487 560 35,000  Level FlightAware
06:38AM 64.9050 13.1300 21° North 488 562 35,000  Level FlightAware
06:39AM 64.9990 13.2160 21° North 490 564 35,000  Level FlightAware
06:40AM 65.0750 13.2860 21° North 490 564 35,000  Level FlightAware
06:41AM 65.1730 13.3760 21° North 483 556 35,000  Level FlightAware
06:41AM 65.2550 13.4520 21° North 483 556 35,000  Level FlightAware
06:42AM 65.3540 13.5440 21° North 493 567 35,000  Level FlightAware
06:43AM 65.4390 13.6240 21° North 486 559 35,000  Level FlightAware
06:43AM 65.5240 13.7050 22° Northeast 487 560 35,000  Level FlightAware
06:44AM 65.6090 13.7860 21° North 488 562 35,000  Level FlightAware
06:45AM 65.7360 13.9080 22° Northeast 495 570 35,000  Level FlightAware
06:46AM 65.8340 14.0000 21° North 495 570 35,000  Level FlightAware
06:46AM 65.9100 14.0650 19° North 495 570 35,000  Level FlightAware
06:47AM 66.0040 14.1470 20° North 495 570 35,000  Level FlightAware
06:48AM 66.0890 14.2230 20° North 495 570 35,000  Level FlightAware
06:48AM 66.1870 14.3120 20° North 494 568 35,000  Level FlightAware
06:49AM 66.2720 14.3890 20° North 493 567 35,000  Level FlightAware
06:50AM 66.3700 14.4800 20° North 493 567 35,000  Level FlightAware
06:51AM 66.4530 14.5580 21° North 484 557 35,000  Level FlightAware
06:51AM 66.5380 14.6360 20° North 484 557 35,000  Level FlightAware
06:52AM 66.6240 14.7170 20° North 482 555 35,000  Level FlightAware
06:53AM 66.7180 14.8050 20° North 482 555 35,000  Level FlightAware
06:53AM 66.8160 14.8980 20° North 482 555 35,000  Level FlightAware
06:54AM 66.9000 14.9780 20° North 482 555 35,000  Level FlightAware
06:55AM 66.9830 15.0620 22° Northeast 493 567 35,000  Level FlightAware
06:55AM 67.0760 15.1860 27° Northeast 495 570 35,000  Level FlightAware
06:56AM 67.1560 15.2960 28° Northeast 495 570 35,000  Level FlightAware
06:57AM 67.2480 15.4210 28° Northeast 490 564 35,000  Level FlightAware
06:58AM 67.3280 15.5320 28° Northeast 497 572 35,000  Level FlightAware
06:58AM 67.4050 15.6400 28° Northeast 497 572 35,000  Level FlightAware
06:59AM 67.5000 15.7730 28° Northeast 498 573 35,000  Level FlightAware
07:00AM 67.5890 15.9000 29° Northeast 498 573 35,000  Level FlightAware
07:00AM 67.6560 15.9950 28° Northeast 492 566 35,000  Level FlightAware
07:01AM 67.7540 16.1370 29° Northeast 493 567 35,000 -240 Level FlightAware
07:02AM 67.8340 16.2540 29° Northeast 501 577 34,700 -1,500 Descending FlightAware
07:03AM 67.9290 16.3930 29° Northeast 502 578 32,900 -2,760 Descending FlightAware
07:03AM 68.0120 16.5150 29° Northeast 518 596 30,800 -2,580 Descending FlightAware
07:04AM 68.0840 16.6230 29° Northeast 500 575 29,700 -1,800 Descending FlightAware
07:05AM 68.1840 16.7750 29° Northeast 480 552 28,300 -1,740 Descending FlightAware
07:05AM 68.2590 16.8880 29° Northeast 476 548 27,100 -1,800 Descending FlightAware
07:06AM 68.3360 17.0040 29° Northeast 459 528 25,900 -1,920 Descending FlightAware
07:07AM 68.4070 17.1130 29° Northeast 443 510 24,600 -2,220 Descending FlightAware
07:07AM 68.4790 17.2250 30° Northeast 443 510 23,000 -1,980 Descending FlightAware
07:08AM 68.5600 17.3500 29° Northeast 426 490 21,800 -1,560 Descending FlightAware
07:09AM 68.6340 17.4680 30° Northeast 396 456 20,700 -1,740 Descending FlightAware
07:09AM 68.6980 17.5690 30° Northeast 393 452 19,400 -1,740 Descending FlightAware
07:10AM 68.7650 17.6770 30° Northeast 372 428 18,300 -1,380 Descending FlightAware
07:11AM 68.8360 17.7910 30° Northeast 352 405 17,200 -1,560 Descending FlightAware
07:12AM 68.8880 17.8750 30° Northeast 350 403 16,000 -1,800 Descending FlightAware
07:12AM 68.9560 17.9860 30° Northeast 342 394 14,800 -1,560 Descending FlightAware
07:13AM 69.0090 18.0730 30° Northeast 333 383 13,800 -1,500 Descending FlightAware
07:14AM 69.0760 18.1840 31° Northeast 323 372 12,600 -1,500 Descending FlightAware
07:15AM 69.1200 18.2670 34° Northeast 320 368 11,700 -1,560 Descending FlightAware
07:15AM 69.1720 18.3810 38° Northeast 314 361 10,500 -1,500 Descending FlightAware
07:16AM 69.2020 18.4490 39° Northeast 306 352 9,900 -900 Descending FlightAware
07:16AM 69.2340 18.5220 39° Northeast 282 325 9,700 -420 Descending FlightAware
07:17AM 69.2670 18.5970 39° Northeast 258 297 9,400 -480 Descending FlightAware
07:17AM 69.3010 18.6650 35° Northeast 230 265 9,200 -720 Descending FlightAware
07:18AM 69.3270 18.6840 14° North 232 267 8,800 -1,140 Descending FlightAware
07:18AM 69.3580 18.7050 13° North 235 270 8,200 -1,440 Descending FlightAware
07:19AM 69.3910 18.7260 13° North 249 287 7,400 -2,100 Descending FlightAware
07:19AM 69.4200 18.7460 14° North 269 310 6,300 -2,220 Descending FlightAware
07:20AM 69.4560 18.7700 13° North 267 307 5,400 -1,860 Descending FlightAware
07:20AM 69.4850 18.7890 13° North 267 307 4,600 -1,980 Descending FlightAware
07:20AM 69.5040 18.8000 11° North 248 285 4,100 -1,800 Descending FlightAware
07:21AM 69.5350 18.8210 13° North 214 246 3,300 -1,560 Descending FlightAware
07:21AM 69.5530 18.8330 13° North 203 234 2,800 -1,440 Descending FlightAware
07:22AM 69.5780 18.8490 13° North 184 212 2,100 -1,320 Descending FlightAware
07:22AM 69.5990 18.8620 12° North 166 191 1,600 -1,140 Descending FlightAware
07:23AM 69.6220 18.8780 14° North 151 174 1,000 -1,080 Descending FlightAware
07:23AM 69.6290 18.8830 14° North 138 159 800 -1,200 Descending FlightAware
07:23AM 69.6500 18.8960 12° North 134 154 200 -1,200 Descending FlightAware
07:24AM 69.6680 18.9090 14° North 136 157 -420 Descending FlightAware
07:24AM 69.6800 18.9170 13° North 129 148  Level FlightAware
07:25AM 69.6850 18.9200 12° North 129 148  Level FlightAware
07:25AM 69.6870 18.9210 10° North 129 148  Level FlightAware
07:26AM 69.6830 18.9150 208° Southwest 19 22  Level FlightAware
07:29AM 69.6833 18.9189 76° East  Level Estimated